createdAt,value
2023-05-13T00:00:23.876Z,80.17
2023-05-13T00:03:26.776Z,79.77
2023-05-13T00:06:29.586Z,79.55
2023-05-13T00:09:33.655Z,79.31
2023-05-13T00:12:37.095Z,79.36
2023-05-13T00:15:40.325Z,81.05
2023-05-13T00:18:42.980Z,80.28
2023-05-13T00:21:45.635Z,79.65
2023-05-13T00:24:49.580Z,80.15
2023-05-13T00:27:52.223Z,79.61
2023-05-13T00:30:55.276Z,80.82
2023-05-13T00:33:57.850Z,80.59
2023-05-13T00:37:00.998Z,80.88
2023-05-13T00:40:05.515Z,80.64
2023-05-13T00:43:08.121Z,79.85
2023-05-13T00:46:10.855Z,80.78
2023-05-13T00:49:13.548Z,81.23
2023-05-13T00:52:16.166Z,81.31
2023-05-13T00:55:20.195Z,82.75
2023-05-13T00:58:22.823Z,82.45
2023-05-13T01:01:34.121Z,82.92
2023-05-13T01:04:45.385Z,82.24
2023-05-13T01:07:57.691Z,82.89
2023-05-13T01:11:05.147Z,84.34
2023-05-13T01:14:12.497Z,83.88
2023-05-13T01:17:19.364Z,83.90
2023-05-13T01:20:24.507Z,84.91
2023-05-13T01:23:28.553Z,84.79
2023-05-13T01:26:31.301Z,85.34
2023-05-13T01:29:34.253Z,86.11
2023-05-13T01:32:38.488Z,85.52
2023-05-13T01:35:41.306Z,86.96
2023-05-13T01:38:45.983Z,85.59
2023-05-13T01:41:48.610Z,87.46
2023-05-13T01:44:52.580Z,87.12
2023-05-13T01:47:55.173Z,87.71
2023-05-13T01:50:57.790Z,87.52
2023-05-13T01:54:01.738Z,87.31
2023-05-13T01:57:04.649Z,87.42
2023-05-13T02:00:08.666Z,88.29
2023-05-13T02:03:11.336Z,87.57
2023-05-13T02:06:14.013Z,89.43
2023-05-13T02:09:17.942Z,90.44
2023-05-13T02:12:20.615Z,89.41
2023-05-13T02:15:23.256Z,88.93
2023-05-13T02:18:25.917Z,90.56
2023-05-13T02:21:28.523Z,93.55
2023-05-13T02:24:32.566Z,92.49
2023-05-13T02:27:35.162Z,91.71
2023-05-13T02:30:37.929Z,91.68
2023-05-13T02:33:40.521Z,91.21
2023-05-13T02:36:43.118Z,91.52
2023-05-13T02:39:47.049Z,91.75
2023-05-13T02:42:49.844Z,92.81
2023-05-13T02:45:52.528Z,91.98
2023-05-13T02:48:55.117Z,93.91
2023-05-13T02:51:57.737Z,93.50
2023-05-13T02:55:01.817Z,94.81
2023-05-13T02:58:04.491Z,94.02
2023-05-13T03:01:07.217Z,94.09
2023-05-13T03:04:09.878Z,94.03
2023-05-13T03:07:12.453Z,94.85
2023-05-13T03:10:16.460Z,94.97
2023-05-13T03:13:19.117Z,94.41
2023-05-13T03:16:21.729Z,94.24
2023-05-13T03:19:25.021Z,93.69
2023-05-13T03:22:27.796Z,95.01
2023-05-13T03:25:31.730Z,95.66
2023-05-13T03:28:34.365Z,96.12
2023-05-13T03:31:37.060Z,96.06
2023-05-13T03:34:39.713Z,95.98
2023-05-13T03:37:42.295Z,95.64
2023-05-13T03:40:46.943Z,95.90
2023-05-13T03:43:49.529Z,94.62
2023-05-13T03:46:52.222Z,95.44
2023-05-13T03:49:54.878Z,96.70
2023-05-13T03:52:57.875Z,96.62
2023-05-13T03:56:01.824Z,96.90
2023-05-13T03:59:04.422Z,95.65
2023-05-13T04:02:07.315Z,95.86
2023-05-13T04:05:10.897Z,95.15
2023-05-13T04:08:13.782Z,95.58
2023-05-13T04:11:17.755Z,95.49
2023-05-13T04:14:20.875Z,96.64
2023-05-13T04:17:23.476Z,96.59
2023-05-13T04:20:26.434Z,97.89
2023-05-13T04:23:29.005Z,97.04
2023-05-13T04:26:33.095Z,95.71
2023-05-13T04:29:35.638Z,97.17
2023-05-13T04:32:39.150Z,98.55
2023-05-13T04:35:41.771Z,97.71
2023-05-13T04:38:44.367Z,98.84
2023-05-13T04:41:48.442Z,97.88
2023-05-13T04:44:51.115Z,97.54
2023-05-13T04:47:54.892Z,99.08
2023-05-13T04:50:58.769Z,96.76
2023-05-13T04:54:01.916Z,96.95
2023-05-13T04:57:06.559Z,96.35
2023-05-13T05:00:10.695Z,96.04
2023-05-13T05:03:13.322Z,95.79
2023-05-13T05:06:15.959Z,94.19
2023-05-13T05:09:18.886Z,93.82
2023-05-13T05:12:22.849Z,93.75
2023-05-13T05:15:25.517Z,94.25
2023-05-13T05:18:28.214Z,93.98
2023-05-13T05:21:30.856Z,93.65
2023-05-13T05:24:33.482Z,92.14
2023-05-13T05:27:37.435Z,91.98
2023-05-13T05:30:40.379Z,91.38
2023-05-13T05:33:43.134Z,91.06
2023-05-13T05:36:45.766Z,90.00
2023-05-13T05:39:48.349Z,87.89
2023-05-13T05:42:52.297Z,89.02
2023-05-13T05:45:54.953Z,87.76
2023-05-13T05:48:57.562Z,86.26
2023-05-13T05:52:00.188Z,86.17
2023-05-13T05:55:03.381Z,84.13
2023-05-13T05:58:07.391Z,85.00
2023-05-13T06:01:10.270Z,83.58
2023-05-13T06:04:13.050Z,81.57
2023-05-13T06:07:15.797Z,77.68
2023-05-13T06:10:18.452Z,78.12
2023-05-13T06:13:22.486Z,77.25
2023-05-13T06:16:25.403Z,75.91
2023-05-13T06:19:28.031Z,75.80
2023-05-13T06:22:30.726Z,74.32
2023-05-13T06:25:33.405Z,74.18
2023-05-13T06:28:37.314Z,74.09
2023-05-13T06:31:39.936Z,72.64
2023-05-13T06:34:45.606Z,71.82
2023-05-13T06:37:48.178Z,71.33
2023-05-13T06:40:50.746Z,71.60
2023-05-13T06:43:54.666Z,69.70
2023-05-13T06:46:57.259Z,69.48
2023-05-13T06:49:59.864Z,68.59
2023-05-13T06:53:03.592Z,67.70
2023-05-13T06:56:06.722Z,67.72
2023-05-13T06:59:10.768Z,65.35
2023-05-13T07:02:13.366Z,67.18
2023-05-13T07:05:15.982Z,64.06
2023-05-13T07:08:18.831Z,64.61
2023-05-13T07:11:22.378Z,61.54
2023-05-13T07:14:26.326Z,63.58
2023-05-13T07:17:29.207Z,60.96
2023-05-13T07:20:31.849Z,61.86
2023-05-13T07:23:35.730Z,61.41
2023-05-13T07:26:38.745Z,59.94
2023-05-13T07:29:42.690Z,60.06
2023-05-13T07:32:45.343Z,59.67
2023-05-13T07:35:47.968Z,59.52
2023-05-13T07:38:50.978Z,58.52
2023-05-13T07:41:53.588Z,59.23
2023-05-13T07:44:57.542Z,56.62
2023-05-13T07:48:00.227Z,56.87
2023-05-13T07:51:02.949Z,58.82
2023-05-13T07:54:05.604Z,58.71
2023-05-13T07:57:08.287Z,56.19
2023-05-13T08:00:13.242Z,57.50
2023-05-13T08:03:16.055Z,55.77
2023-05-13T08:06:18.740Z,52.62
2023-05-13T08:09:21.335Z,55.02
2023-05-13T08:12:23.954Z,54.06
2023-05-13T08:15:28.979Z,56.73
2023-05-13T08:18:31.578Z,53.50
2023-05-13T08:21:34.213Z,53.07
2023-05-13T08:24:36.764Z,51.90
2023-05-13T08:27:39.414Z,53.46
2023-05-13T08:30:44.295Z,51.51
2023-05-13T08:33:48.499Z,51.84
2023-05-13T08:36:51.092Z,51.94
2023-05-13T08:39:55.901Z,50.50
2023-05-13T08:43:00.535Z,50.22
2023-05-13T08:46:05.235Z,48.26
2023-05-13T08:49:09.385Z,48.13
2023-05-13T08:52:12.075Z,46.26
2023-05-13T08:55:15.605Z,48.10
2023-05-13T08:58:18.207Z,46.16
2023-05-13T09:01:23.974Z,44.96
2023-05-13T09:04:26.957Z,46.20
2023-05-13T09:07:31.468Z,43.16
2023-05-13T09:10:34.055Z,43.23
2023-05-13T09:13:37.350Z,42.53
2023-05-13T09:16:41.331Z,43.68
2023-05-13T09:19:44.051Z,43.61
2023-05-13T09:22:48.113Z,43.44
2023-05-13T09:25:50.771Z,41.08
2023-05-13T09:29:17.773Z,41.15
2023-05-13T09:32:21.729Z,40.07
2023-05-13T09:35:24.317Z,40.73
2023-05-13T09:38:29.005Z,42.14
2023-05-13T09:41:32.378Z,40.92
2023-05-13T09:44:35.067Z,40.77
2023-05-13T09:47:39.182Z,40.62
2023-05-13T09:50:48.643Z,40.28
2023-05-13T09:53:51.220Z,38.49
2023-05-13T09:56:59.504Z,35.43
2023-05-13T10:00:05.155Z,35.14
2023-05-13T10:03:09.542Z,37.61
2023-05-13T10:06:12.282Z,36.10
2023-05-13T10:09:17.493Z,37.72
2023-05-13T10:12:22.121Z,33.39
2023-05-13T10:15:25.914Z,33.77
2023-05-13T10:18:30.279Z,33.58
2023-05-13T10:21:33.540Z,34.04
2023-05-13T10:24:38.686Z,33.08
2023-05-13T10:27:43.244Z,32.36
2023-05-13T10:30:46.606Z,31.63
2023-05-13T10:33:53.257Z,31.87
2023-05-13T10:37:10.850Z,31.25
2023-05-13T10:40:30.135Z,32.16
2023-05-13T10:43:33.111Z,31.13
2023-05-13T10:46:39.251Z,32.45
2023-05-13T10:49:51.850Z,32.27
2023-05-13T10:52:58.211Z,30.21
2023-05-13T10:56:01.038Z,31.90
2023-05-13T10:59:05.461Z,29.36
2023-05-13T11:02:22.002Z,29.33
2023-05-13T11:05:26.168Z,29.71
2023-05-13T11:08:38.880Z,27.15
2023-05-13T11:11:41.851Z,27.37
2023-05-13T11:14:44.981Z,28.79
2023-05-13T11:17:47.686Z,29.16
2023-05-13T11:20:55.070Z,25.23
2023-05-13T11:23:59.188Z,27.34
2023-05-13T11:27:14.588Z,25.49
2023-05-13T11:30:24.186Z,28.84
2023-05-13T11:34:02.008Z,26.42
2023-05-13T11:37:11.482Z,23.86
2023-05-13T11:40:22.731Z,24.10
2023-05-13T11:43:25.662Z,23.84
2023-05-13T11:46:28.335Z,23.30
2023-05-13T11:49:39.705Z,23.26
2023-05-13T11:52:43.721Z,26.07
2023-05-13T11:55:46.582Z,25.00
2023-05-13T11:58:49.370Z,24.75
2023-05-13T12:02:02.086Z,22.49
2023-05-13T12:05:06.119Z,24.36
2023-05-13T12:08:11.854Z,25.21
2023-05-13T12:11:14.956Z,26.16
2023-05-13T12:14:18.240Z,22.39
2023-05-13T12:17:22.285Z,23.48
2023-05-13T12:20:25.715Z,22.20
2023-05-13T12:23:39.794Z,23.37
2023-05-13T12:26:42.796Z,23.40
2023-05-13T12:29:45.394Z,23.08
2023-05-13T12:32:48.029Z,24.06
2023-05-13T12:35:52.424Z,21.60
2023-05-13T12:39:00.234Z,23.45
2023-05-13T12:42:03.290Z,20.43
2023-05-13T12:45:07.207Z,21.75
2023-05-13T12:48:10.137Z,23.63
2023-05-13T12:51:12.767Z,24.97
2023-05-13T12:54:16.703Z,25.00
2023-05-13T12:57:20.509Z,25.23
2023-05-13T13:00:23.335Z,25.92
2023-05-13T13:03:26.098Z,28.95
2023-05-13T13:06:29.938Z,26.97
2023-05-13T13:09:33.900Z,26.90
2023-05-13T13:12:36.484Z,28.21
2023-05-13T13:15:39.336Z,23.05
2023-05-13T13:18:42.566Z,23.32
2023-05-13T13:21:45.189Z,22.04
2023-05-13T13:24:49.150Z,22.13
2023-05-13T13:27:51.784Z,22.47
2023-05-13T13:30:54.515Z,24.95
2023-05-13T13:33:58.897Z,22.96
2023-05-13T13:37:01.540Z,24.16
2023-05-13T13:40:06.499Z,25.96
2023-05-13T13:43:09.456Z,24.92
2023-05-13T13:46:12.076Z,24.50
2023-05-13T13:49:23.232Z,27.72
2023-05-13T13:52:28.467Z,26.62
2023-05-13T13:55:32.455Z,27.09
2023-05-13T13:58:35.389Z,27.96
2023-05-13T14:01:39.406Z,25.81
2023-05-13T14:04:42.078Z,26.52
2023-05-13T14:07:44.696Z,23.69
2023-05-13T14:10:48.720Z,25.27
2023-05-13T14:13:51.326Z,24.31
2023-05-13T14:16:53.994Z,25.00
2023-05-13T14:19:56.610Z,24.15
2023-05-13T14:22:59.237Z,25.38
2023-05-13T14:26:03.241Z,26.16
2023-05-13T14:29:05.856Z,25.98
2023-05-13T14:32:08.783Z,25.74
2023-05-13T14:35:11.389Z,27.53
2023-05-13T14:38:13.980Z,27.13
2023-05-13T14:41:19.817Z,27.25
2023-05-13T14:44:22.470Z,26.04
2023-05-13T14:47:25.451Z,29.47
2023-05-13T14:50:28.073Z,26.70
2023-05-13T14:53:30.718Z,27.25
2023-05-13T14:56:34.719Z,28.17
2023-05-13T14:59:37.388Z,27.81
2023-05-13T15:02:40.172Z,26.63
2023-05-13T15:05:44.144Z,27.29
2023-05-13T15:08:46.991Z,27.98
2023-05-13T15:11:50.969Z,26.51
2023-05-13T15:14:54.137Z,27.73
2023-05-13T15:17:56.769Z,27.73
2023-05-13T15:20:59.427Z,26.98
2023-05-13T15:24:02.019Z,26.93
2023-05-13T15:27:06.572Z,27.69
2023-05-13T15:30:09.920Z,28.92
2023-05-13T15:33:12.586Z,27.20
2023-05-13T15:36:15.256Z,27.95
2023-05-13T15:39:18.036Z,28.59
2023-05-13T15:42:23.006Z,27.78
2023-05-13T15:45:25.639Z,28.00
2023-05-13T15:48:28.402Z,29.05
2023-05-13T15:51:31.611Z,29.64
2023-05-13T15:54:34.874Z,29.71
2023-05-13T15:57:39.701Z,29.83
2023-05-13T16:00:42.362Z,29.69
2023-05-13T16:03:45.032Z,29.08
2023-05-13T16:06:47.628Z,28.49
2023-05-13T16:09:50.188Z,28.62
2023-05-13T16:12:54.118Z,31.95
2023-05-13T16:15:56.954Z,29.05
2023-05-13T16:18:59.628Z,27.72
2023-05-13T16:22:25.196Z,28.70
2023-05-13T16:25:27.826Z,28.22
2023-05-13T16:28:31.849Z,27.28
2023-05-13T16:31:34.730Z,28.57
2023-05-13T16:34:37.406Z,28.24
2023-05-13T16:37:40.002Z,29.23
2023-05-13T16:40:42.648Z,29.11
2023-05-13T16:43:46.575Z,30.57
2023-05-13T16:46:49.176Z,29.40
2023-05-13T16:49:51.756Z,29.98
2023-05-13T16:52:54.486Z,31.34
2023-05-13T16:55:57.142Z,29.12
2023-05-13T16:59:01.146Z,29.95
2023-05-13T17:02:03.788Z,31.66
2023-05-13T17:05:07.241Z,32.01
2023-05-13T17:08:09.908Z,30.15
2023-05-13T17:11:16.526Z,30.39
2023-05-13T17:14:20.651Z,31.09
2023-05-13T17:17:23.238Z,32.19
2023-05-13T17:20:25.904Z,31.88
2023-05-13T17:23:28.484Z,33.10
2023-05-13T17:26:31.163Z,31.42
2023-05-13T17:29:35.102Z,32.80
2023-05-13T17:32:37.732Z,33.14
2023-05-13T17:35:40.468Z,33.59
2023-05-13T17:38:43.199Z,30.33
2023-05-13T17:41:46.053Z,31.18
2023-05-13T17:44:50.009Z,31.00
2023-05-13T17:47:52.746Z,33.35
2023-05-13T17:50:55.492Z,34.54
2023-05-13T17:53:58.095Z,34.25
2023-05-13T17:57:00.727Z,34.90
2023-05-13T18:00:06.884Z,35.13
2023-05-13T18:03:09.886Z,35.61
2023-05-13T18:06:12.599Z,35.71
2023-05-13T18:09:15.186Z,35.91
2023-05-13T18:12:18.116Z,35.38
2023-05-13T18:15:22.053Z,36.02
2023-05-13T18:18:24.738Z,36.55
2023-05-13T18:21:28.800Z,37.81
2023-05-13T18:24:31.370Z,38.42
2023-05-13T18:27:33.976Z,37.75
2023-05-13T18:30:37.937Z,39.15
2023-05-13T18:33:40.655Z,39.76
2023-05-13T18:36:43.322Z,40.68
2023-05-13T18:39:45.916Z,40.42
2023-05-13T18:42:48.565Z,41.79
2023-05-13T18:45:53.199Z,42.46
2023-05-13T18:48:56.580Z,43.32
2023-05-13T18:51:59.358Z,43.55
2023-05-13T18:55:04.106Z,44.17
2023-05-13T18:58:06.672Z,44.92
2023-05-13T19:01:10.711Z,44.68
2023-05-13T19:04:15.200Z,44.80
2023-05-13T19:07:17.963Z,44.95
2023-05-13T19:10:20.687Z,45.86
2023-05-13T19:13:25.391Z,45.59
2023-05-13T19:16:32.735Z,45.36
2023-05-13T19:19:35.412Z,45.86
2023-05-13T19:22:38.411Z,46.01
2023-05-13T19:25:42.677Z,46.60
2023-05-13T19:28:47.016Z,47.76
2023-05-13T19:31:50.996Z,48.46
2023-05-13T19:34:53.677Z,48.33
2023-05-13T19:37:56.760Z,48.17
2023-05-13T19:40:59.364Z,48.32
2023-05-13T19:44:02.349Z,48.83
2023-05-13T19:47:06.536Z,49.46
2023-05-13T19:50:09.726Z,49.67
2023-05-13T19:53:12.537Z,50.34
2023-05-13T19:56:15.200Z,49.97
2023-05-13T19:59:17.786Z,50.47
2023-05-13T20:02:22.043Z,50.63
2023-05-13T20:05:24.656Z,50.84
2023-05-13T20:08:29.488Z,51.09
2023-05-13T20:11:32.546Z,52.00
2023-05-13T20:14:45.546Z,52.02
2023-05-13T20:17:49.639Z,52.24
2023-05-13T20:20:53.596Z,52.75
2023-05-13T20:23:56.391Z,53.92
2023-05-13T20:26:58.969Z,54.29
2023-05-13T20:30:02.046Z,54.29
2023-05-13T20:33:06.406Z,54.93
2023-05-13T20:36:09.123Z,55.25
2023-05-13T20:39:11.704Z,55.93
2023-05-13T20:42:14.298Z,56.28
2023-05-13T20:45:16.892Z,56.45
2023-05-13T20:48:20.831Z,56.91
2023-05-13T20:51:23.546Z,56.56
2023-05-13T20:54:26.184Z,57.41
2023-05-13T20:57:28.811Z,57.66
2023-05-13T21:00:31.421Z,57.93
2023-05-13T21:03:35.453Z,57.88
2023-05-13T21:06:38.192Z,57.93
2023-05-13T21:09:40.843Z,58.77
2023-05-13T21:12:47.492Z,59.17
2023-05-13T21:15:51.904Z,58.79
2023-05-13T21:18:56.076Z,58.86
2023-05-13T21:21:58.685Z,59.02
2023-05-13T21:25:01.298Z,59.42
2023-05-13T21:28:04.788Z,60.14
2023-05-13T21:31:07.453Z,60.80
2023-05-13T21:34:11.428Z,60.97
2023-05-13T21:37:14.291Z,60.71
2023-05-13T21:40:17.234Z,61.21
2023-05-13T21:43:19.856Z,61.70
2023-05-13T21:46:22.495Z,61.50
2023-05-13T21:49:26.489Z,61.01
2023-05-13T21:52:29.228Z,60.94
2023-05-13T21:55:34.718Z,60.54
2023-05-13T21:58:37.361Z,61.02
2023-05-13T22:01:39.957Z,60.60
2023-05-13T22:04:43.983Z,60.71
2023-05-13T22:07:46.611Z,60.18
2023-05-13T22:10:49.168Z,60.21
2023-05-13T22:13:51.858Z,61.13
2023-05-13T22:17:07.806Z,61.16
2023-05-13T22:20:13.855Z,61.13
2023-05-13T22:23:16.807Z,61.50
2023-05-13T22:26:19.421Z,61.26
2023-05-13T22:29:22.397Z,61.92
2023-05-13T22:32:25.404Z,61.68
2023-05-13T22:35:29.753Z,62.06
2023-05-13T22:38:32.318Z,62.55
2023-05-13T22:41:34.896Z,63.43
2023-05-13T22:44:37.977Z,63.33
2023-05-13T22:47:40.668Z,63.47
2023-05-13T22:50:44.679Z,63.84
2023-05-13T22:53:47.263Z,64.48
2023-05-13T22:56:49.817Z,65.27
2023-05-13T22:59:52.408Z,64.67
2023-05-13T23:02:55.052Z,65.37
2023-05-13T23:05:59.096Z,65.54
2023-05-13T23:09:01.721Z,66.04
2023-05-13T23:12:04.637Z,66.02
2023-05-13T23:15:08.364Z,66.39
2023-05-13T23:18:10.981Z,67.05
2023-05-13T23:21:14.958Z,68.20
2023-05-13T23:24:17.553Z,67.72
2023-05-13T23:27:20.161Z,68.25
2023-05-13T23:30:23.238Z,68.60
2023-05-13T23:33:26.163Z,68.95
2023-05-13T23:36:30.092Z,68.91
2023-05-13T23:39:32.757Z,69.88
2023-05-13T23:42:35.958Z,70.28
2023-05-13T23:45:38.652Z,70.75
2023-05-13T23:48:41.239Z,70.59
2023-05-13T23:51:45.422Z,71.71
2023-05-13T23:54:48.012Z,71.94
2023-05-13T23:57:50.788Z,71.52
